WZZ5KL LICA-EETN
Flight info
| Callsign | WZZ5KL |
|---|---|
| Flight time | 3h 4m |
| Altitude | 34000 |
| Route | APVAR DCT BUMOK DCT KATTI/N0451F330 DCT ELTIB DCT VEBAL DCT BODZA DCT SUPAK M159 GOLAD/N0452F340 DCT ASKOR/N0460F350 DCT KEMET |
| Aircraft | A321/M-SDE3FGHIRWY/LB1 |
Departure
| Time | 2026-04-25 16:21 |
|---|---|
| Airport | Lamezia Terme Sant'Eufemia International Airport (LICA) |
Arrival
| Time | 2026-04-25 19:25 |
|---|---|
| Airport | Lennart Meri Tallinn Airport (EETN) |
| Time | Latitude | Longitude | Altitude | Speed | Heading |
|---|---|---|---|---|---|
| 2026-04-25 16:09 | 38.90879 | 16.24457 | 32 ft | 0 kts | 51° |
| 2026-04-25 16:15 | 38.90879 | 16.24458 | 32 ft | 0 kts | 56° |
| 2026-04-25 16:16 | 38.90879 | 16.24459 | 32 ft | 0 kts | 67° |
| 2026-04-25 16:16 | 38.90877 | 16.24463 | 32 ft | 1 kts | 99° |
| 2026-04-25 16:16 | 38.90871 | 16.24464 | 32 ft | 1 kts | 162° |
| 2026-04-25 16:16 | 38.90847 | 16.24460 | 30 ft | 5 kts | 187° |
| 2026-04-25 16:17 | 38.90815 | 16.24464 | 32 ft | 4 kts | 138° |
| 2026-04-25 16:17 | 38.90806 | 16.24506 | 32 ft | 7 kts | 102° |
| 2026-04-25 16:17 | 38.90780 | 16.24569 | 32 ft | 10 kts | 139° |
| 2026-04-25 16:17 | 38.90722 | 16.24630 | 32 ft | 12 kts | 125° |
| 2026-04-25 16:18 | 38.90703 | 16.24746 | 32 ft | 15 kts | 98° |
| 2026-04-25 16:18 | 38.90698 | 16.24792 | 32 ft | 16 kts | 98° |
| 2026-04-25 16:18 | 38.90667 | 16.25058 | 33 ft | 20 kts | 98° |
| 2026-04-25 16:18 | 38.90648 | 16.25232 | 33 ft | 20 kts | 97° |
| 2026-04-25 16:19 | 38.90628 | 16.25412 | 33 ft | 22 kts | 99° |
| 2026-04-25 16:19 | 38.90603 | 16.25625 | 32 ft | 26 kts | 98° |
| 2026-04-25 16:19 | 38.90575 | 16.25874 | 32 ft | 29 kts | 99° |
| 2026-04-25 16:20 | 38.90409 | 16.26250 | 32 ft | 25 kts | 155° |
| 2026-04-25 16:20 | 38.90321 | 16.26279 | 34 ft | 11 kts | 207° |
| 2026-04-25 16:20 | 38.90350 | 16.25857 | 32 ft | 73 kts | 279° |
| 2026-04-25 16:21 | 38.90454 | 16.24948 | 36 ft | 131 kts | 279° |
| 2026-04-25 16:21 | 38.90610 | 16.23584 | 157 ft | 167 kts | 277° |
| 2026-04-25 16:21 | 38.90769 | 16.22136 | 909 ft | 163 kts | 277° |
| 2026-04-25 16:21 | 38.90937 | 16.20696 | 1582 ft | 163 kts | 278° |
| 2026-04-25 16:22 | 38.91359 | 16.19333 | 1961 ft | 174 kts | 303° |
| 2026-04-25 16:22 | 38.92079 | 16.17971 | 2112 ft | 193 kts | 302° |
| 2026-04-25 16:22 | 38.92850 | 16.16445 | 2226 ft | 215 kts | 302° |
| 2026-04-25 16:22 | 38.93704 | 16.14732 | 2394 ft | 240 kts | 302° |
| 2026-04-25 16:23 | 38.94630 | 16.12859 | 2805 ft | 253 kts | 302° |
| 2026-04-25 16:23 | 38.95570 | 16.10951 | 3477 ft | 256 kts | 302° |
| 2026-04-25 16:23 | 38.96525 | 16.09008 | 4138 ft | 259 kts | 302° |
| 2026-04-25 16:23 | 38.97508 | 16.07003 | 4771 ft | 264 kts | 302° |
| 2026-04-25 16:24 | 38.98483 | 16.05013 | 5385 ft | 268 kts | 303° |
| 2026-04-25 16:24 | 38.99483 | 16.02972 | 5993 ft | 272 kts | 303° |
| 2026-04-25 16:24 | 39.00502 | 16.00898 | 6613 ft | 275 kts | 304° |
| 2026-04-25 16:24 | 39.01536 | 15.98796 | 7189 ft | 279 kts | 303° |
| 2026-04-25 16:25 | 39.02681 | 15.96768 | 7754 ft | 281 kts | 316° |
| 2026-04-25 16:25 | 39.03157 | 15.96179 | 7964 ft | 281 kts | 321° |
| 2026-04-25 16:25 | 39.06024 | 15.94264 | 8976 ft | 281 kts | 349° |
| 2026-04-25 16:25 | 39.07961 | 15.93896 | 9593 ft | 282 kts | 354° |
| 2026-04-25 16:26 | 39.09914 | 15.93589 | 10207 ft | 284 kts | 354° |
| 2026-04-25 16:26 | 39.11932 | 15.93266 | 10428 ft | 301 kts | 354° |
| 2026-04-25 16:26 | 39.14051 | 15.92925 | 10556 ft | 320 kts | 354° |
| 2026-04-25 16:26 | 39.16327 | 15.92562 | 10667 ft | 338 kts | 353° |
| 2026-04-25 16:27 | 39.18713 | 15.92177 | 10987 ft | 348 kts | 353° |
| 2026-04-25 16:27 | 39.21141 | 15.91781 | 11480 ft | 353 kts | 353° |
| 2026-04-25 16:27 | 39.23590 | 15.91378 | 12002 ft | 356 kts | 353° |
| 2026-04-25 16:27 | 39.26060 | 15.90975 | 12534 ft | 359 kts | 354° |
| 2026-04-25 16:28 | 39.28554 | 15.90572 | 13069 ft | 363 kts | 354° |
| 2026-04-25 16:28 | 39.31068 | 15.90167 | 13604 ft | 366 kts | 354° |
| 2026-04-25 16:28 | 39.33615 | 15.89753 | 14107 ft | 370 kts | 354° |
| 2026-04-25 16:28 | 39.36182 | 15.89333 | 14586 ft | 372 kts | 354° |
| 2026-04-25 16:29 | 39.38732 | 15.88919 | 15060 ft | 375 kts | 354° |
| 2026-04-25 16:29 | 39.41337 | 15.88499 | 15551 ft | 378 kts | 354° |
| 2026-04-25 16:29 | 39.43957 | 15.88076 | 16045 ft | 381 kts | 354° |
| 2026-04-25 16:29 | 39.46599 | 15.87648 | 16534 ft | 383 kts | 354° |
| 2026-04-25 16:30 | 39.49253 | 15.87215 | 17023 ft | 386 kts | 354° |
| 2026-04-25 16:30 | 39.51926 | 15.86783 | 17506 ft | 389 kts | 354° |
| 2026-04-25 16:30 | 39.54622 | 15.86354 | 17983 ft | 392 kts | 354° |
| 2026-04-25 16:30 | 39.57343 | 15.85924 | 18460 ft | 394 kts | 354° |
| 2026-04-25 16:31 | 39.60073 | 15.85492 | 18862 ft | 397 kts | 354° |
| 2026-04-25 16:31 | 39.62790 | 15.85058 | 19285 ft | 399 kts | 354° |
| 2026-04-25 16:31 | 39.65556 | 15.84612 | 19714 ft | 401 kts | 354° |
| 2026-04-25 16:31 | 39.68337 | 15.84163 | 20140 ft | 404 kts | 354° |
| 2026-04-25 16:32 | 39.71129 | 15.83706 | 20559 ft | 406 kts | 354° |
| 2026-04-25 16:32 | 39.73939 | 15.83244 | 20961 ft | 408 kts | 354° |
| 2026-04-25 16:32 | 39.76762 | 15.82780 | 21365 ft | 410 kts | 354° |
| 2026-04-25 16:32 | 39.79600 | 15.82310 | 21745 ft | 412 kts | 354° |
| 2026-04-25 16:33 | 39.82453 | 15.81833 | 22126 ft | 414 kts | 353° |
| 2026-04-25 16:33 | 39.85325 | 15.81357 | 22502 ft | 417 kts | 353° |
| 2026-04-25 16:33 | 39.88212 | 15.80882 | 22857 ft | 419 kts | 353° |
| 2026-04-25 16:33 | 39.91117 | 15.80407 | 23225 ft | 421 kts | 353° |
| 2026-04-25 16:34 | 39.93999 | 15.79933 | 23574 ft | 423 kts | 353° |
| 2026-04-25 16:34 | 39.96934 | 15.79450 | 23891 ft | 425 kts | 353° |
| 2026-04-25 16:34 | 39.99882 | 15.78965 | 24200 ft | 427 kts | 354° |
| 2026-04-25 16:34 | 40.02838 | 15.78479 | 24498 ft | 429 kts | 354° |
| 2026-04-25 16:35 | 40.05805 | 15.77988 | 24807 ft | 430 kts | 354° |
| 2026-04-25 16:35 | 40.08781 | 15.77492 | 25105 ft | 432 kts | 354° |
| 2026-04-25 16:35 | 40.11769 | 15.76998 | 25395 ft | 434 kts | 354° |
| 2026-04-25 16:35 | 40.14771 | 15.76501 | 25698 ft | 435 kts | 353° |
| 2026-04-25 16:36 | 40.17779 | 15.75998 | 25963 ft | 437 kts | 353° |
| 2026-04-25 16:36 | 40.18758 | 15.75833 | 26057 ft | 438 kts | 353° |
| 2026-04-25 16:36 | 40.23802 | 15.74989 | 26504 ft | 440 kts | 354° |
| 2026-04-25 16:36 | 40.26851 | 15.74477 | 26773 ft | 442 kts | 354° |
| 2026-04-25 16:37 | 40.29913 | 15.73964 | 27035 ft | 444 kts | 354° |
| 2026-04-25 16:37 | 40.32987 | 15.73454 | 27300 ft | 446 kts | 354° |
| 2026-04-25 16:37 | 40.36070 | 15.72944 | 27575 ft | 447 kts | 354° |
| 2026-04-25 16:37 | 40.39163 | 15.72430 | 27806 ft | 449 kts | 354° |
| 2026-04-25 16:38 | 40.42279 | 15.71900 | 28068 ft | 451 kts | 353° |
| 2026-04-25 16:38 | 40.45392 | 15.71360 | 28326 ft | 452 kts | 353° |
| 2026-04-25 16:38 | 40.48477 | 15.70829 | 28564 ft | 454 kts | 354° |
| 2026-04-25 16:38 | 40.51621 | 15.70291 | 28805 ft | 456 kts | 354° |
| 2026-04-25 16:39 | 40.54775 | 15.69758 | 29070 ft | 457 kts | 354° |
| 2026-04-25 16:39 | 40.57927 | 15.69226 | 29415 ft | 456 kts | 353° |
| 2026-04-25 16:39 | 40.61075 | 15.68694 | 29752 ft | 456 kts | 354° |
| 2026-04-25 16:39 | 40.64222 | 15.68166 | 30089 ft | 455 kts | 354° |
| 2026-04-25 16:40 | 40.67360 | 15.67640 | 30391 ft | 454 kts | 354° |
| 2026-04-25 16:40 | 40.70501 | 15.67235 | 30645 ft | 453 kts | 360° |
| 2026-04-25 16:40 | 40.73643 | 15.67415 | 30884 ft | 452 kts | 9° |
| 2026-04-25 16:40 | 40.76754 | 15.68051 | 31141 ft | 452 kts | 10° |
| 2026-04-25 16:41 | 40.79863 | 15.68700 | 31387 ft | 452 kts | 10° |
| 2026-04-25 16:41 | 40.89142 | 15.70620 | 32159 ft | 451 kts | 10° |
| 2026-04-25 16:42 | 40.92245 | 15.71264 | 32408 ft | 451 kts | 10° |
| 2026-04-25 16:42 | 40.94342 | 15.71697 | 32562 ft | 452 kts | 10° |
| 2026-04-25 16:42 | 40.97455 | 15.72337 | 32788 ft | 452 kts | 10° |
| 2026-04-25 16:42 | 41.00561 | 15.72977 | 33036 ft | 452 kts | 10° |
| 2026-04-25 16:43 | 41.03629 | 15.73610 | 33279 ft | 451 kts | 10° |
| 2026-04-25 16:43 | 41.06731 | 15.74253 | 33530 ft | 451 kts | 10° |
| 2026-04-25 16:43 | 41.09869 | 15.74902 | 33778 ft | 451 kts | 10° |
| 2026-04-25 16:43 | 41.12931 | 15.75536 | 33983 ft | 451 kts | 10° |
| 2026-04-25 16:44 | 41.19140 | 15.76832 | 34033 ft | 452 kts | 10° |
| 2026-04-25 16:44 | 41.25359 | 15.78133 | 34031 ft | 452 kts | 10° |
| 2026-04-25 16:45 | 41.31570 | 15.79436 | 34027 ft | 452 kts | 9° |
| 2026-04-25 16:45 | 41.37797 | 15.80734 | 34031 ft | 453 kts | 10° |
| 2026-04-25 16:46 | 41.44028 | 15.82040 | 34036 ft | 453 kts | 10° |
| 2026-04-25 16:46 | 41.49205 | 15.83134 | 34034 ft | 453 kts | 9° |
| 2026-04-25 16:47 | 41.56494 | 15.84671 | 34037 ft | 453 kts | 9° |
| 2026-04-25 16:47 | 41.62728 | 15.85989 | 34036 ft | 453 kts | 9° |
| 2026-04-25 16:48 | 41.68939 | 15.87301 | 34040 ft | 454 kts | 9° |
| 2026-04-25 16:48 | 41.75173 | 15.88625 | 34061 ft | 454 kts | 9° |
| 2026-04-25 16:49 | 41.81412 | 15.89955 | 34066 ft | 454 kts | 9° |
| 2026-04-25 16:49 | 41.87653 | 15.91285 | 34070 ft | 454 kts | 9° |
| 2026-04-25 16:50 | 41.93901 | 15.92619 | 34065 ft | 454 kts | 9° |
| 2026-04-25 16:50 | 42.00109 | 15.93944 | 34050 ft | 455 kts | 9° |
| 2026-04-25 16:51 | 42.06365 | 15.95281 | 34053 ft | 455 kts | 9° |
| 2026-04-25 16:51 | 42.11611 | 15.96411 | 34057 ft | 456 kts | 8° |
| 2026-04-25 16:52 | 42.18890 | 15.97980 | 34058 ft | 456 kts | 8° |
| 2026-04-25 16:52 | 42.25153 | 15.99321 | 34058 ft | 456 kts | 8° |
| 2026-04-25 16:53 | 42.34545 | 16.01348 | 34067 ft | 455 kts | 8° |
| 2026-04-25 16:54 | 42.40814 | 16.02703 | 34062 ft | 455 kts | 8° |
| 2026-04-25 16:54 | 42.47071 | 16.04064 | 34061 ft | 455 kts | 8° |
| 2026-04-25 16:55 | 42.53256 | 16.05887 | 34063 ft | 456 kts | 16° |
| 2026-04-25 16:55 | 42.59330 | 16.08423 | 34061 ft | 456 kts | 16° |
| 2026-04-25 16:56 | 42.65409 | 16.10956 | 34060 ft | 456 kts | 16° |
| 2026-04-25 16:56 | 42.71448 | 16.13476 | 34061 ft | 456 kts | 15° |
| 2026-04-25 16:57 | 42.77523 | 16.16012 | 34060 ft | 457 kts | 15° |
| 2026-04-25 16:57 | 42.83609 | 16.18546 | 34061 ft | 457 kts | 15° |
| 2026-04-25 16:58 | 42.89690 | 16.21096 | 34060 ft | 457 kts | 15° |
| 2026-04-25 16:58 | 42.95774 | 16.23656 | 34061 ft | 457 kts | 15° |
| 2026-04-25 16:59 | 43.01857 | 16.26220 | 34059 ft | 457 kts | 15° |
| 2026-04-25 16:59 | 43.07905 | 16.28779 | 34061 ft | 458 kts | 15° |
| 2026-04-25 17:00 | 43.13995 | 16.31356 | 34051 ft | 458 kts | 15° |
| 2026-04-25 17:00 | 43.20086 | 16.33927 | 34049 ft | 458 kts | 15° |
| 2026-04-25 17:01 | 43.26173 | 16.36515 | 34060 ft | 458 kts | 15° |
| 2026-04-25 17:01 | 43.32257 | 16.39106 | 34057 ft | 457 kts | 15° |
| 2026-04-25 17:02 | 43.38341 | 16.41705 | 34050 ft | 457 kts | 15° |
| 2026-04-25 17:02 | 43.44418 | 16.44299 | 34057 ft | 457 kts | 15° |
| 2026-04-25 17:03 | 43.50502 | 16.46898 | 34051 ft | 457 kts | 15° |
| 2026-04-25 17:03 | 43.56577 | 16.49502 | 34045 ft | 457 kts | 15° |
| 2026-04-25 17:04 | 43.62614 | 16.52095 | 34049 ft | 457 kts | 15° |
| 2026-04-25 17:04 | 43.68694 | 16.54723 | 34048 ft | 457 kts | 15° |
| 2026-04-25 17:05 | 43.74769 | 16.57346 | 34050 ft | 457 kts | 15° |
| 2026-04-25 17:05 | 43.83888 | 16.61303 | 34053 ft | 458 kts | 14° |
| 2026-04-25 17:06 | 43.89971 | 16.63941 | 34050 ft | 458 kts | 14° |
| 2026-04-25 17:06 | 43.96060 | 16.66584 | 34047 ft | 458 kts | 14° |
| 2026-04-25 17:07 | 44.02104 | 16.69215 | 34049 ft | 458 kts | 14° |
| 2026-04-25 17:07 | 44.08189 | 16.71876 | 34045 ft | 458 kts | 14° |
| 2026-04-25 17:08 | 44.14276 | 16.74546 | 34045 ft | 458 kts | 14° |
| 2026-04-25 17:08 | 44.20360 | 16.77218 | 34046 ft | 458 kts | 14° |
| 2026-04-25 17:09 | 44.26440 | 16.79892 | 34041 ft | 458 kts | 14° |
| 2026-04-25 17:09 | 44.29483 | 16.81231 | 33684 ft | 454 kts | 13° |
| 2026-04-25 17:09 | 44.32538 | 16.82228 | 33146 ft | 449 kts | 8° |
| 2026-04-25 17:10 | 44.34569 | 16.82780 | 33025 ft | 450 kts | 7° |
| 2026-04-25 17:10 | 44.38690 | 16.83911 | 33020 ft | 453 kts | 7° |
| 2026-04-25 17:10 | 44.44871 | 16.85628 | 33015 ft | 453 kts | 7° |
| 2026-04-25 17:11 | 44.51061 | 16.87360 | 33006 ft | 453 kts | 7° |
| 2026-04-25 17:11 | 44.57242 | 16.89082 | 32996 ft | 452 kts | 7° |
| 2026-04-25 17:12 | 44.63424 | 16.90804 | 33000 ft | 453 kts | 7° |
| 2026-04-25 17:12 | 44.69616 | 16.92529 | 33000 ft | 453 kts | 7° |
| 2026-04-25 17:13 | 44.73713 | 16.93673 | 33003 ft | 453 kts | 7° |
| 2026-04-25 17:13 | 44.81951 | 16.95988 | 33001 ft | 453 kts | 7° |
| 2026-04-25 17:14 | 44.88138 | 16.97732 | 32994 ft | 453 kts | 7° |
| 2026-04-25 17:14 | 44.94338 | 16.99480 | 33007 ft | 453 kts | 7° |
| 2026-04-25 17:15 | 45.00530 | 17.01237 | 32995 ft | 453 kts | 7° |
| 2026-04-25 17:15 | 45.06720 | 17.02996 | 32992 ft | 453 kts | 7° |
| 2026-04-25 17:16 | 45.12902 | 17.04755 | 33000 ft | 453 kts | 7° |
| 2026-04-25 17:16 | 45.19077 | 17.06505 | 32994 ft | 452 kts | 7° |
| 2026-04-25 17:17 | 45.25250 | 17.08261 | 32989 ft | 452 kts | 7° |
| 2026-04-25 17:17 | 45.31426 | 17.10031 | 33003 ft | 452 kts | 7° |
| 2026-04-25 17:18 | 45.37601 | 17.11810 | 32995 ft | 453 kts | 7° |
| 2026-04-25 17:18 | 45.43754 | 17.13576 | 32993 ft | 453 kts | 7° |
| 2026-04-25 17:19 | 45.49933 | 17.15347 | 32994 ft | 453 kts | 7° |
| 2026-04-25 17:19 | 45.56126 | 17.17132 | 32998 ft | 453 kts | 7° |
| 2026-04-25 17:20 | 45.62313 | 17.18921 | 32998 ft | 453 kts | 7° |
| 2026-04-25 17:20 | 45.68498 | 17.20712 | 33012 ft | 453 kts | 6° |
| 2026-04-25 17:21 | 45.74669 | 17.22505 | 33006 ft | 452 kts | 6° |
| 2026-04-25 17:21 | 45.80794 | 17.24288 | 33002 ft | 452 kts | 6° |
| 2026-04-25 17:22 | 45.84920 | 17.25485 | 32997 ft | 452 kts | 6° |
| 2026-04-25 17:22 | 45.93129 | 17.27878 | 33004 ft | 452 kts | 6° |
| 2026-04-25 17:23 | 45.99260 | 17.29955 | 32991 ft | 457 kts | 15° |
| 2026-04-25 17:23 | 46.05067 | 17.33817 | 32989 ft | 461 kts | 21° |
| 2026-04-25 17:24 | 46.10827 | 17.37872 | 33004 ft | 461 kts | 21° |
| 2026-04-25 17:24 | 46.16593 | 17.41923 | 32995 ft | 461 kts | 21° |
| 2026-04-25 17:25 | 46.21392 | 17.45300 | 32991 ft | 461 kts | 21° |
| 2026-04-25 17:25 | 46.27166 | 17.49366 | 33008 ft | 461 kts | 20° |
| 2026-04-25 17:26 | 46.32930 | 17.53450 | 33005 ft | 462 kts | 21° |
| 2026-04-25 17:26 | 46.38697 | 17.57562 | 32998 ft | 462 kts | 21° |
| 2026-04-25 17:27 | 46.44465 | 17.61673 | 33011 ft | 462 kts | 20° |
| 2026-04-25 17:27 | 46.49253 | 17.65089 | 33002 ft | 462 kts | 20° |
| 2026-04-25 17:28 | 46.55993 | 17.69902 | 32999 ft | 461 kts | 20° |
| 2026-04-25 17:28 | 46.61750 | 17.74031 | 32997 ft | 461 kts | 21° |
| 2026-04-25 17:29 | 46.67502 | 17.78171 | 33004 ft | 461 kts | 20° |
| 2026-04-25 17:29 | 46.73226 | 17.82287 | 33001 ft | 461 kts | 20° |
| 2026-04-25 17:30 | 46.78980 | 17.86440 | 32998 ft | 461 kts | 20° |
| 2026-04-25 17:30 | 46.84729 | 17.90614 | 33016 ft | 461 kts | 20° |
| 2026-04-25 17:31 | 46.90480 | 17.94786 | 33003 ft | 461 kts | 20° |
| 2026-04-25 17:31 | 46.96229 | 17.98956 | 32999 ft | 461 kts | 20° |
| 2026-04-25 17:32 | 47.01976 | 18.03148 | 33023 ft | 461 kts | 20° |
| 2026-04-25 17:32 | 47.07711 | 18.07350 | 33004 ft | 461 kts | 20° |
| 2026-04-25 17:33 | 47.13442 | 18.11548 | 32991 ft | 460 kts | 20° |
| 2026-04-25 17:33 | 47.19143 | 18.15734 | 32992 ft | 460 kts | 20° |
| 2026-04-25 17:34 | 47.24869 | 18.19954 | 32991 ft | 460 kts | 20° |
| 2026-04-25 17:34 | 47.30592 | 18.24178 | 32995 ft | 460 kts | 20° |
| 2026-04-25 17:35 | 47.36316 | 18.28414 | 32982 ft | 460 kts | 20° |
| 2026-04-25 17:35 | 47.42051 | 18.32665 | 32983 ft | 461 kts | 20° |
| 2026-04-25 17:36 | 47.47777 | 18.36927 | 32983 ft | 461 kts | 20° |
| 2026-04-25 17:36 | 47.53507 | 18.41200 | 32980 ft | 461 kts | 20° |
| 2026-04-25 17:37 | 47.59230 | 18.45492 | 32989 ft | 461 kts | 20° |
| 2026-04-25 17:37 | 47.64954 | 18.49827 | 32978 ft | 461 kts | 20° |
| 2026-04-25 17:38 | 47.69701 | 18.53445 | 32967 ft | 462 kts | 20° |
| 2026-04-25 17:38 | 47.76347 | 18.58509 | 32968 ft | 461 kts | 20° |
| 2026-04-25 17:39 | 47.82102 | 18.62888 | 32986 ft | 462 kts | 20° |
| 2026-04-25 17:39 | 47.87815 | 18.67249 | 32977 ft | 462 kts | 20° |
| 2026-04-25 17:40 | 47.93527 | 18.71638 | 32970 ft | 462 kts | 20° |
| 2026-04-25 17:40 | 47.99214 | 18.76010 | 33001 ft | 462 kts | 20° |
| 2026-04-25 17:41 | 48.04931 | 18.80412 | 32994 ft | 462 kts | 20° |
| 2026-04-25 17:41 | 48.10645 | 18.84824 | 32985 ft | 462 kts | 20° |
| 2026-04-25 17:42 | 48.16349 | 18.89241 | 32980 ft | 462 kts | 20° |
| 2026-04-25 17:42 | 48.22049 | 18.93665 | 32990 ft | 462 kts | 20° |
| 2026-04-25 17:43 | 48.27752 | 18.98099 | 32980 ft | 461 kts | 20° |
| 2026-04-25 17:43 | 48.33449 | 19.02546 | 32976 ft | 461 kts | 20° |
| 2026-04-25 17:44 | 48.39140 | 19.07001 | 32993 ft | 462 kts | 20° |
| 2026-04-25 17:44 | 48.44838 | 19.11472 | 32982 ft | 462 kts | 20° |
| 2026-04-25 17:45 | 48.48650 | 19.14492 | 32978 ft | 463 kts | 20° |
| 2026-04-25 17:45 | 48.56249 | 19.20471 | 32979 ft | 463 kts | 20° |
| 2026-04-25 17:46 | 48.61956 | 19.24964 | 32968 ft | 461 kts | 20° |
| 2026-04-25 17:46 | 48.67648 | 19.29468 | 32968 ft | 461 kts | 20° |
| 2026-04-25 17:47 | 48.73335 | 19.33988 | 32971 ft | 462 kts | 20° |
| 2026-04-25 17:47 | 48.78994 | 19.38496 | 33003 ft | 462 kts | 20° |
| 2026-04-25 17:48 | 48.87493 | 19.45278 | 32977 ft | 459 kts | 20° |
| 2026-04-25 17:49 | 48.93146 | 19.49815 | 32975 ft | 460 kts | 20° |
| 2026-04-25 17:49 | 48.98804 | 19.54372 | 33003 ft | 459 kts | 20° |
| 2026-04-25 17:50 | 49.04450 | 19.58930 | 32990 ft | 459 kts | 20° |
| 2026-04-25 17:50 | 49.10090 | 19.63484 | 32980 ft | 458 kts | 20° |
| 2026-04-25 17:51 | 49.15727 | 19.68048 | 32968 ft | 457 kts | 20° |
| 2026-04-25 17:51 | 49.21304 | 19.72580 | 32980 ft | 457 kts | 21° |
| 2026-04-25 17:52 | 49.26917 | 19.77155 | 32969 ft | 456 kts | 21° |
| 2026-04-25 17:52 | 49.32671 | 19.80934 | 32964 ft | 443 kts | 8° |
| 2026-04-25 17:53 | 49.38607 | 19.83422 | 32954 ft | 442 kts | 8° |
| 2026-04-25 17:53 | 49.44552 | 19.85931 | 32944 ft | 442 kts | 8° |
| 2026-04-25 17:54 | 49.50488 | 19.88452 | 32947 ft | 443 kts | 8° |
| 2026-04-25 17:54 | 49.56431 | 19.90979 | 32951 ft | 443 kts | 8° |
| 2026-04-25 17:55 | 49.62372 | 19.93511 | 32945 ft | 442 kts | 8° |
| 2026-04-25 17:55 | 49.68288 | 19.96039 | 32935 ft | 440 kts | 8° |
| 2026-04-25 17:56 | 49.74191 | 19.98564 | 32924 ft | 440 kts | 8° |
| 2026-04-25 17:56 | 49.80100 | 20.01107 | 32916 ft | 441 kts | 9° |
| 2026-04-25 17:57 | 49.86005 | 20.03652 | 32946 ft | 441 kts | 8° |
| 2026-04-25 17:57 | 49.91878 | 20.06185 | 32929 ft | 441 kts | 9° |
| 2026-04-25 17:58 | 49.97787 | 20.08737 | 32909 ft | 441 kts | 8° |
| 2026-04-25 17:58 | 50.03700 | 20.11299 | 32905 ft | 441 kts | 9° |
| 2026-04-25 17:59 | 50.09613 | 20.13875 | 32920 ft | 441 kts | 8° |
| 2026-04-25 17:59 | 50.15536 | 20.16459 | 32907 ft | 441 kts | 8° |
| 2026-04-25 18:00 | 50.21454 | 20.19046 | 32896 ft | 441 kts | 8° |
| 2026-04-25 18:00 | 50.27370 | 20.21633 | 32936 ft | 441 kts | 8° |
| 2026-04-25 18:01 | 50.33287 | 20.24237 | 32919 ft | 441 kts | 8° |
| 2026-04-25 18:01 | 50.39196 | 20.26838 | 32901 ft | 441 kts | 8° |
| 2026-04-25 18:02 | 50.45107 | 20.29439 | 32878 ft | 441 kts | 8° |
| 2026-04-25 18:02 | 50.51018 | 20.32056 | 32903 ft | 442 kts | 8° |
| 2026-04-25 18:03 | 50.56936 | 20.34695 | 32893 ft | 442 kts | 8° |
| 2026-04-25 18:03 | 50.62814 | 20.37305 | 32883 ft | 442 kts | 8° |
| 2026-04-25 18:04 | 50.68737 | 20.39934 | 32876 ft | 442 kts | 8° |
| 2026-04-25 18:04 | 50.74653 | 20.42586 | 32866 ft | 441 kts | 9° |
| 2026-04-25 18:05 | 50.80532 | 20.45241 | 32855 ft | 439 kts | 9° |
| 2026-04-25 18:05 | 50.86421 | 20.47893 | 32851 ft | 440 kts | 9° |
| 2026-04-25 18:06 | 50.92313 | 20.50540 | 32861 ft | 441 kts | 9° |
| 2026-04-25 18:06 | 50.98219 | 20.53203 | 32873 ft | 441 kts | 9° |
| 2026-04-25 18:07 | 51.04127 | 20.55879 | 32857 ft | 441 kts | 9° |
| 2026-04-25 18:07 | 51.09034 | 20.58108 | 32854 ft | 441 kts | 9° |
| 2026-04-25 18:08 | 51.14942 | 20.60803 | 32851 ft | 442 kts | 9° |
| 2026-04-25 18:08 | 51.21814 | 20.63958 | 32864 ft | 442 kts | 9° |
| 2026-04-25 18:09 | 51.26775 | 20.66224 | 32862 ft | 443 kts | 9° |
| 2026-04-25 18:09 | 51.32694 | 20.68933 | 32839 ft | 442 kts | 9° |
| 2026-04-25 18:10 | 51.38613 | 20.71655 | 32840 ft | 443 kts | 9° |
| 2026-04-25 18:10 | 51.44498 | 20.74369 | 32824 ft | 442 kts | 8° |
| 2026-04-25 18:11 | 51.50455 | 20.77120 | 32814 ft | 443 kts | 8° |
| 2026-04-25 18:11 | 51.56345 | 20.79854 | 32817 ft | 444 kts | 8° |
| 2026-04-25 18:12 | 51.62286 | 20.82636 | 32817 ft | 444 kts | 8° |
| 2026-04-25 18:12 | 51.68226 | 20.85413 | 32816 ft | 444 kts | 8° |
| 2026-04-25 18:13 | 51.74170 | 20.88197 | 32823 ft | 444 kts | 8° |
| 2026-04-25 18:13 | 51.80116 | 20.90986 | 32824 ft | 444 kts | 8° |
| 2026-04-25 18:14 | 51.88982 | 20.95158 | 32796 ft | 444 kts | 8° |
| 2026-04-25 18:14 | 51.94904 | 20.97963 | 32790 ft | 443 kts | 8° |
| 2026-04-25 18:15 | 52.00832 | 21.00766 | 32791 ft | 444 kts | 8° |
| 2026-04-25 18:15 | 52.06757 | 21.03577 | 32799 ft | 443 kts | 8° |
| 2026-04-25 18:16 | 52.12676 | 21.06392 | 32791 ft | 442 kts | 8° |
| 2026-04-25 18:17 | 52.21527 | 21.10631 | 32786 ft | 442 kts | 8° |
| 2026-04-25 18:17 | 52.27434 | 21.13457 | 32783 ft | 442 kts | 8° |
| 2026-04-25 18:18 | 52.33345 | 21.16301 | 32836 ft | 443 kts | 7° |
| 2026-04-25 18:18 | 52.39251 | 21.19148 | 32770 ft | 442 kts | 7° |
| 2026-04-25 18:19 | 52.45173 | 21.22019 | 32763 ft | 443 kts | 7° |
| 2026-04-25 18:19 | 52.51088 | 21.24892 | 32760 ft | 444 kts | 7° |
| 2026-04-25 18:20 | 52.56976 | 21.27751 | 32818 ft | 444 kts | 7° |
| 2026-04-25 18:20 | 52.62901 | 21.30643 | 32755 ft | 444 kts | 7° |
| 2026-04-25 18:21 | 52.68826 | 21.33548 | 32758 ft | 444 kts | 7° |
| 2026-04-25 18:21 | 52.74757 | 21.36457 | 32761 ft | 445 kts | 7° |
| 2026-04-25 18:22 | 52.80695 | 21.39367 | 32809 ft | 445 kts | 6° |
| 2026-04-25 18:22 | 52.86645 | 21.42299 | 32757 ft | 446 kts | 7° |
| 2026-04-25 18:23 | 52.92600 | 21.45247 | 32755 ft | 447 kts | 7° |
| 2026-04-25 18:23 | 52.98571 | 21.48220 | 32754 ft | 447 kts | 7° |
| 2026-04-25 18:24 | 53.04534 | 21.51189 | 32818 ft | 448 kts | 6° |
| 2026-04-25 18:24 | 53.10525 | 21.54171 | 32734 ft | 449 kts | 7° |
| 2026-04-25 18:25 | 53.16515 | 21.57174 | 32733 ft | 450 kts | 7° |
| 2026-04-25 18:25 | 53.22512 | 21.60193 | 32730 ft | 451 kts | 7° |
| 2026-04-25 18:26 | 53.28518 | 21.63218 | 32820 ft | 451 kts | 6° |
| 2026-04-25 18:26 | 53.34558 | 21.66262 | 32728 ft | 453 kts | 7° |
| 2026-04-25 18:27 | 53.40600 | 21.69324 | 32727 ft | 455 kts | 7° |
| 2026-04-25 18:27 | 53.46660 | 21.72405 | 32730 ft | 456 kts | 7° |
| 2026-04-25 18:28 | 53.52732 | 21.75497 | 32795 ft | 456 kts | 7° |
| 2026-04-25 18:28 | 53.58829 | 21.78619 | 32736 ft | 458 kts | 7° |
| 2026-04-25 18:29 | 53.67990 | 21.83304 | 32734 ft | 459 kts | 7° |
| 2026-04-25 18:30 | 53.77137 | 21.88014 | 32846 ft | 462 kts | 7° |
| 2026-04-25 18:30 | 53.80218 | 21.89607 | 33034 ft | 464 kts | 7° |
| 2026-04-25 18:30 | 53.83313 | 21.91208 | 33307 ft | 464 kts | 7° |
| 2026-04-25 18:30 | 53.86400 | 21.92809 | 33606 ft | 464 kts | 7° |
| 2026-04-25 18:31 | 53.89481 | 21.94417 | 33874 ft | 463 kts | 8° |
| 2026-04-25 18:31 | 53.92560 | 21.96027 | 34117 ft | 463 kts | 8° |
| 2026-04-25 18:31 | 53.95636 | 21.97632 | 34349 ft | 463 kts | 8° |
| 2026-04-25 18:31 | 53.98722 | 21.99240 | 34564 ft | 462 kts | 8° |
| 2026-04-25 18:32 | 54.01805 | 22.00851 | 34686 ft | 463 kts | 8° |
| 2026-04-25 18:32 | 54.04873 | 22.02458 | 34713 ft | 463 kts | 8° |
| 2026-04-25 18:32 | 54.11044 | 22.05689 | 34706 ft | 463 kts | 8° |
| 2026-04-25 18:33 | 54.17204 | 22.08927 | 34706 ft | 463 kts | 8° |
| 2026-04-25 18:33 | 54.23322 | 22.12160 | 34706 ft | 463 kts | 8° |
| 2026-04-25 18:34 | 54.29487 | 22.15435 | 34706 ft | 463 kts | 8° |
| 2026-04-25 18:34 | 54.35685 | 22.17979 | 34695 ft | 450 kts | 358° |
| 2026-04-25 18:35 | 54.41904 | 22.19220 | 34689 ft | 451 kts | 358° |
| 2026-04-25 18:35 | 54.48139 | 22.20483 | 34689 ft | 451 kts | 358° |
| 2026-04-25 18:36 | 54.54342 | 22.21755 | 34692 ft | 451 kts | 358° |
| 2026-04-25 18:36 | 54.60576 | 22.23033 | 34677 ft | 451 kts | 358° |
| 2026-04-25 18:37 | 54.66816 | 22.24321 | 34681 ft | 452 kts | 358° |
| 2026-04-25 18:37 | 54.73059 | 22.25624 | 34674 ft | 452 kts | 358° |
| 2026-04-25 18:38 | 54.79308 | 22.26917 | 34704 ft | 453 kts | 359° |
| 2026-04-25 18:38 | 54.85578 | 22.28210 | 34672 ft | 454 kts | 359° |
| 2026-04-25 18:39 | 54.91860 | 22.29514 | 34679 ft | 454 kts | 359° |
| 2026-04-25 18:39 | 54.98136 | 22.30821 | 34677 ft | 454 kts | 359° |
| 2026-04-25 18:40 | 55.04421 | 22.32138 | 34672 ft | 454 kts | 359° |
| 2026-04-25 18:40 | 55.10699 | 22.33454 | 34647 ft | 453 kts | 359° |
| 2026-04-25 18:41 | 55.16965 | 22.34779 | 34647 ft | 454 kts | 359° |
| 2026-04-25 18:41 | 55.23247 | 22.36120 | 34638 ft | 455 kts | 359° |
| 2026-04-25 18:42 | 55.27451 | 22.37017 | 34638 ft | 455 kts | 359° |
| 2026-04-25 18:42 | 55.35826 | 22.38794 | 34673 ft | 455 kts | 360° |
| 2026-04-25 18:43 | 55.42119 | 22.40137 | 34656 ft | 456 kts | 0° |
| 2026-04-25 18:43 | 55.48413 | 22.41496 | 34650 ft | 456 kts | 0° |
| 2026-04-25 18:44 | 55.54710 | 22.42859 | 34640 ft | 456 kts | 0° |
| 2026-04-25 18:44 | 55.61007 | 22.44205 | 34651 ft | 455 kts | 0° |
| 2026-04-25 18:45 | 55.67294 | 22.45563 | 34642 ft | 455 kts | 0° |
| 2026-04-25 18:45 | 55.73578 | 22.46928 | 34639 ft | 455 kts | 0° |
| 2026-04-25 18:46 | 55.79867 | 22.48303 | 34632 ft | 455 kts | 0° |
| 2026-04-25 18:46 | 55.86154 | 22.49677 | 34660 ft | 455 kts | 1° |
| 2026-04-25 18:47 | 55.92455 | 22.51055 | 34638 ft | 456 kts | 1° |
| 2026-04-25 18:47 | 55.98759 | 22.52437 | 34634 ft | 457 kts | 1° |
| 2026-04-25 18:48 | 56.05069 | 22.53831 | 34633 ft | 457 kts | 1° |
| 2026-04-25 18:48 | 56.10315 | 22.54998 | 34624 ft | 457 kts | 1° |
| 2026-04-25 18:49 | 56.16634 | 22.56403 | 34645 ft | 458 kts | 1° |
| 2026-04-25 18:49 | 56.22968 | 22.57817 | 34624 ft | 459 kts | 1° |
| 2026-04-25 18:50 | 56.29308 | 22.59234 | 34615 ft | 459 kts | 1° |
| 2026-04-25 18:50 | 56.35654 | 22.60661 | 34628 ft | 460 kts | 3° |
| 2026-04-25 18:51 | 56.40835 | 22.63259 | 34645 ft | 471 kts | 19° |
| 2026-04-25 18:51 | 56.47869 | 22.68825 | 34633 ft | 472 kts | 18° |
| 2026-04-25 18:52 | 56.53895 | 22.73577 | 34631 ft | 472 kts | 18° |
| 2026-04-25 18:52 | 56.59893 | 22.78330 | 34626 ft | 472 kts | 19° |
| 2026-04-25 18:53 | 56.65909 | 22.83136 | 34624 ft | 473 kts | 19° |
| 2026-04-25 18:53 | 56.71935 | 22.87970 | 34615 ft | 473 kts | 19° |
| 2026-04-25 18:54 | 56.80964 | 22.95231 | 34621 ft | 473 kts | 19° |
| 2026-04-25 18:55 | 56.86981 | 23.00091 | 34627 ft | 473 kts | 19° |
| 2026-04-25 18:55 | 56.93005 | 23.04962 | 34640 ft | 473 kts | 19° |
| 2026-04-25 18:56 | 56.99038 | 23.09856 | 34630 ft | 473 kts | 19° |
| 2026-04-25 18:56 | 57.05058 | 23.14775 | 34621 ft | 474 kts | 19° |
| 2026-04-25 18:57 | 57.11077 | 23.19721 | 34612 ft | 474 kts | 19° |
| 2026-04-25 18:57 | 57.17093 | 23.24665 | 34632 ft | 474 kts | 20° |
| 2026-04-25 18:58 | 57.23117 | 23.29625 | 34621 ft | 474 kts | 20° |
| 2026-04-25 18:58 | 57.32117 | 23.37081 | 34610 ft | 474 kts | 20° |
| 2026-04-25 18:59 | 57.44151 | 23.47146 | 34625 ft | 474 kts | 20° |
| 2026-04-25 19:00 | 57.53177 | 23.54687 | 34608 ft | 474 kts | 20° |
| 2026-04-25 19:01 | 57.62182 | 23.62289 | 34594 ft | 474 kts | 20° |
| 2026-04-25 19:01 | 57.68188 | 23.67386 | 34618 ft | 474 kts | 21° |
| 2026-04-25 19:02 | 57.77193 | 23.75042 | 34587 ft | 474 kts | 21° |
| 2026-04-25 19:03 | 57.85187 | 23.81885 | 34568 ft | 475 kts | 21° |
| 2026-04-25 19:03 | 57.89216 | 23.85344 | 34223 ft | 477 kts | 21° |
| 2026-04-25 19:03 | 57.92220 | 23.87924 | 33342 ft | 485 kts | 21° |
| 2026-04-25 19:04 | 57.98361 | 23.93229 | 31900 ft | 485 kts | 21° |
| 2026-04-25 19:04 | 58.01416 | 23.95889 | 31340 ft | 482 kts | 21° |
| 2026-04-25 19:05 | 58.07453 | 24.01155 | 30365 ft | 473 kts | 21° |
| 2026-04-25 19:05 | 58.13350 | 24.06298 | 28874 ft | 460 kts | 21° |
| 2026-04-25 19:05 | 58.16232 | 24.08809 | 28000 ft | 454 kts | 20° |
| 2026-04-25 19:06 | 58.19080 | 24.11298 | 27175 ft | 448 kts | 21° |
| 2026-04-25 19:06 | 58.24665 | 24.16196 | 25558 ft | 437 kts | 21° |
| 2026-04-25 19:06 | 58.27399 | 24.18605 | 24872 ft | 428 kts | 21° |
| 2026-04-25 19:07 | 58.32664 | 24.23267 | 23941 ft | 404 kts | 20° |
| 2026-04-25 19:07 | 58.35182 | 24.25496 | 23522 ft | 394 kts | 20° |
| 2026-04-25 19:08 | 58.40011 | 24.29765 | 22652 ft | 374 kts | 20° |
| 2026-04-25 19:08 | 58.42340 | 24.31827 | 22249 ft | 364 kts | 20° |
| 2026-04-25 19:09 | 58.49147 | 24.37888 | 20996 ft | 355 kts | 21° |
| 2026-04-25 19:09 | 58.50620 | 24.39207 | 20728 ft | 353 kts | 21° |
| 2026-04-25 19:09 | 58.55776 | 24.43818 | 19755 ft | 347 kts | 21° |
| 2026-04-25 19:10 | 58.57953 | 24.45765 | 19341 ft | 344 kts | 21° |
| 2026-04-25 19:10 | 58.60117 | 24.47703 | 18928 ft | 343 kts | 21° |
| 2026-04-25 19:10 | 58.62245 | 24.49613 | 18521 ft | 341 kts | 21° |
| 2026-04-25 19:10 | 58.64387 | 24.51544 | 18104 ft | 339 kts | 21° |
| 2026-04-25 19:11 | 58.66521 | 24.53474 | 17667 ft | 338 kts | 21° |
| 2026-04-25 19:11 | 58.68639 | 24.55392 | 17252 ft | 336 kts | 21° |
| 2026-04-25 19:11 | 58.70743 | 24.57293 | 16829 ft | 333 kts | 21° |
| 2026-04-25 19:11 | 58.72826 | 24.59203 | 16432 ft | 330 kts | 23° |
| 2026-04-25 19:12 | 58.74858 | 24.61230 | 16025 ft | 328 kts | 25° |
| 2026-04-25 19:12 | 58.76848 | 24.63337 | 15647 ft | 325 kts | 25° |
| 2026-04-25 19:12 | 58.78814 | 24.65465 | 15257 ft | 322 kts | 26° |
| 2026-04-25 19:12 | 58.80762 | 24.67580 | 14874 ft | 320 kts | 25° |
| 2026-04-25 19:13 | 58.82698 | 24.69669 | 14495 ft | 317 kts | 25° |
| 2026-04-25 19:13 | 58.84620 | 24.71734 | 14105 ft | 315 kts | 25° |
| 2026-04-25 19:13 | 58.86533 | 24.73782 | 13719 ft | 313 kts | 25° |
| 2026-04-25 19:13 | 58.88438 | 24.75816 | 13344 ft | 311 kts | 25° |
| 2026-04-25 19:14 | 58.90305 | 24.77806 | 12945 ft | 309 kts | 25° |
| 2026-04-25 19:14 | 58.90942 | 24.78483 | 12810 ft | 309 kts | 24° |
| 2026-04-25 19:14 | 58.94041 | 24.81780 | 12207 ft | 303 kts | 24° |
| 2026-04-25 19:14 | 58.95883 | 24.83746 | 11818 ft | 301 kts | 25° |
| 2026-04-25 19:15 | 58.97714 | 24.85702 | 11451 ft | 298 kts | 25° |
| 2026-04-25 19:15 | 58.99524 | 24.87640 | 11091 ft | 296 kts | 25° |
| 2026-04-25 19:15 | 59.01320 | 24.89566 | 10727 ft | 294 kts | 25° |
| 2026-04-25 19:15 | 59.03100 | 24.91478 | 10375 ft | 291 kts | 25° |
| 2026-04-25 19:16 | 59.04866 | 24.93375 | 10004 ft | 289 kts | 25° |
| 2026-04-25 19:16 | 59.06621 | 24.95262 | 9662 ft | 287 kts | 25° |
| 2026-04-25 19:16 | 59.08344 | 24.97124 | 9578 ft | 284 kts | 25° |
| 2026-04-25 19:16 | 59.10075 | 24.98991 | 9462 ft | 284 kts | 25° |
| 2026-04-25 19:17 | 59.11807 | 25.00857 | 9235 ft | 286 kts | 25° |
| 2026-04-25 19:17 | 59.13552 | 25.02739 | 8829 ft | 285 kts | 25° |
| 2026-04-25 19:17 | 59.15266 | 25.04595 | 8496 ft | 281 kts | 25° |
| 2026-04-25 19:17 | 59.16979 | 25.06454 | 8042 ft | 282 kts | 25° |
| 2026-04-25 19:18 | 59.18690 | 25.08308 | 7652 ft | 281 kts | 25° |
| 2026-04-25 19:18 | 59.20389 | 25.10152 | 7277 ft | 279 kts | 25° |
| 2026-04-25 19:18 | 59.22081 | 25.11993 | 6912 ft | 278 kts | 25° |
| 2026-04-25 19:18 | 59.23764 | 25.13826 | 6547 ft | 276 kts | 25° |
| 2026-04-25 19:19 | 59.25435 | 25.15653 | 6181 ft | 275 kts | 25° |
| 2026-04-25 19:19 | 59.27099 | 25.17479 | 5821 ft | 273 kts | 25° |
| 2026-04-25 19:19 | 59.28753 | 25.19293 | 5535 ft | 268 kts | 25° |
| 2026-04-25 19:19 | 59.29818 | 25.20463 | 5442 ft | 262 kts | 25° |
| 2026-04-25 19:20 | 59.31378 | 25.22176 | 5306 ft | 252 kts | 24° |
| 2026-04-25 19:20 | 59.33482 | 25.23648 | 5041 ft | 235 kts | 4° |
| 2026-04-25 19:20 | 59.35075 | 25.23790 | 4836 ft | 227 kts | 356° |
| 2026-04-25 19:20 | 59.36648 | 25.23816 | 4554 ft | 224 kts | 356° |
| 2026-04-25 19:21 | 59.38204 | 25.23859 | 4257 ft | 222 kts | 357° |
| 2026-04-25 19:21 | 59.40855 | 25.21906 | 3657 ft | 210 kts | 300° |
| 2026-04-25 19:21 | 59.41153 | 25.19135 | 3348 ft | 214 kts | 270° |
| 2026-04-25 19:22 | 59.41094 | 25.16208 | 3038 ft | 213 kts | 278° |
| 2026-04-25 19:22 | 59.41172 | 25.13298 | 2767 ft | 214 kts | 277° |
| 2026-04-25 19:22 | 59.41228 | 25.07491 | 2330 ft | 211 kts | 276° |
| 2026-04-25 19:23 | 59.41241 | 25.04652 | 2069 ft | 202 kts | 276° |
| 2026-04-25 19:23 | 59.41265 | 24.99353 | 1508 ft | 191 kts | 276° |
| 2026-04-25 19:23 | 59.41273 | 24.96907 | 1255 ft | 165 kts | 276° |
| 2026-04-25 19:24 | 59.41282 | 24.94737 | 998 ft | 155 kts | 275° |
| 2026-04-25 19:24 | 59.41291 | 24.92679 | 804 ft | 147 kts | 275° |
| 2026-04-25 19:24 | 59.41310 | 24.88853 | 409 ft | 137 kts | 274° |
| 2026-04-25 19:25 | 59.41322 | 24.85232 | 166 ft | 114 kts | 272° |
| 2026-04-25 19:25 | 59.41331 | 24.83994 | 161 ft | 66 kts | 269° |
| 2026-04-25 19:25 | 59.41331 | 24.83251 | 164 ft | 49 kts | 271° |
| 2026-04-25 19:26 | 59.41336 | 24.82616 | 159 ft | 44 kts | 269° |
| 2026-04-25 19:26 | 59.41338 | 24.82047 | 162 ft | 40 kts | 270° |
| 2026-04-25 19:26 | 59.41336 | 24.81529 | 163 ft | 37 kts | 270° |
| 2026-04-25 19:26 | 59.41336 | 24.81019 | 159 ft | 34 kts | 271° |
| 2026-04-25 19:27 | 59.41356 | 24.80640 | 160 ft | 21 kts | 302° |
| 2026-04-25 19:27 | 59.41390 | 24.80573 | 161 ft | 20 kts | 317° |
| 2026-04-25 19:27 | 59.41518 | 24.80428 | 162 ft | 12 kts | 309° |
| 2026-04-25 19:27 | 59.41531 | 24.80297 | 162 ft | 7 kts | 287° |
| 2026-04-25 19:28 | 59.41568 | 24.80277 | 162 ft | 5 kts | 0° |
| 2026-04-25 19:28 | 59.41577 | 24.80277 | 162 ft | 1 kts | 360° |
| 2026-04-25 19:28 | 59.41582 | 24.80277 | 162 ft | 0 kts | 0° |
| 2026-04-25 19:28 | 59.41583 | 24.80277 | 162 ft | 0 kts | 0° |